createdAt,value
2022-12-20T00:04:02.566Z,97669.81
2022-12-20T00:08:02.964Z,97663.72
2022-12-20T00:12:03.237Z,97686.84
2022-12-20T00:16:13.563Z,97684.97
2022-12-20T00:20:16.943Z,97673.34
2022-12-20T00:24:23.870Z,97681.50
2022-12-20T00:28:26.303Z,97681.84
2022-12-20T00:32:26.573Z,97680.75
2022-12-20T00:36:32.161Z,97670.06
2022-12-20T00:40:32.501Z,97655.94
2022-12-20T00:44:32.808Z,97680.38
2022-12-20T00:48:34.663Z,97666.09
2022-12-20T00:52:37.634Z,97650.84
2022-12-20T00:56:38.057Z,97594.25
2022-12-20T01:00:38.518Z,97675.47
2022-12-20T01:04:38.923Z,97649.88
2022-12-20T01:08:42.239Z,97642.53
2022-12-20T01:12:44.762Z,97660.63
2022-12-20T01:16:49.547Z,97651.72
2022-12-20T01:20:50.298Z,97668.19
2022-12-20T01:24:53.239Z,97684.41
2022-12-20T01:28:58.189Z,97678.50
2022-12-20T01:32:58.389Z,97681.88
2022-12-20T01:36:58.693Z,97667.59
2022-12-20T01:41:02.006Z,97667.59
2022-12-20T01:45:02.912Z,97653.66
2022-12-20T01:49:27.406Z,97647.50
2022-12-20T01:53:28.014Z,97651.50
2022-12-20T01:57:39.542Z,97642.78
2022-12-20T02:01:40.593Z,97652.16
2022-12-20T02:05:45.919Z,97663.91
2022-12-20T02:09:46.720Z,97598.97
2022-12-20T02:14:05.054Z,97628.28
2022-12-20T02:18:20.897Z,97554.84
2022-12-20T02:22:32.804Z,97620.84
2022-12-20T02:27:03.868Z,97591.34
2022-12-20T02:31:14.412Z,97602.06
2022-12-20T02:35:21.405Z,97606.81
2022-12-20T02:39:22.556Z,97614.91
2022-12-20T02:43:38.020Z,97607.47
2022-12-20T02:47:49.596Z,97623.78
2022-12-20T02:51:57.153Z,97613.25
2022-12-20T02:56:08.414Z,97604.22
2022-12-20T03:00:13.617Z,97582.66
2022-12-20T03:04:18.608Z,97588.50
2022-12-20T03:08:20.356Z,97575.56
2022-12-20T03:12:22.037Z,97572.41
2022-12-20T03:16:22.681Z,97576.22
2022-12-20T03:20:25.604Z,97573.59
2022-12-20T03:24:25.726Z,97578.28
2022-12-20T03:28:26.661Z,97492.88
2022-12-20T03:32:28.155Z,97584.97
2022-12-20T03:36:34.724Z,97563.03
2022-12-20T03:40:37.348Z,97576.31
2022-12-20T03:44:37.658Z,97573.09
2022-12-20T03:48:38.484Z,97571.38
2022-12-20T03:52:41.687Z,97573.63
2022-12-20T03:56:41.879Z,97556.00
2022-12-20T04:00:42.237Z,97567.97
2022-12-20T04:05:10.453Z,97578.28
2022-12-20T04:09:14.029Z,97572.13
2022-12-20T04:13:20.615Z,97582.97
2022-12-20T04:17:21.073Z,97548.34
2022-12-20T04:21:26.777Z,97548.78
2022-12-20T04:25:32.016Z,97582.97
2022-12-20T04:29:32.394Z,97571.66
2022-12-20T04:33:34.047Z,97567.22
2022-12-20T04:37:34.858Z,97567.75
2022-12-20T04:41:38.067Z,97584.28
2022-12-20T04:45:44.567Z,97574.31
2022-12-20T04:49:44.844Z,97577.94
2022-12-20T04:53:51.025Z,97575.16
2022-12-20T04:58:07.855Z,97552.56
2022-12-20T05:02:10.712Z,97541.47
2022-12-20T05:06:20.667Z,97522.69
2022-12-20T05:10:21.824Z,97531.31
2022-12-20T05:14:25.823Z,97540.34
2022-12-20T05:18:27.231Z,97536.22
2022-12-20T05:22:44.635Z,97534.41
2022-12-20T05:26:46.518Z,97555.75
2022-12-20T05:30:50.915Z,97551.44
2022-12-20T05:34:51.202Z,97553.00
2022-12-20T05:38:56.638Z,97544.47
2022-12-20T05:43:01.169Z,97527.44
2022-12-20T05:47:12.127Z,97508.88
2022-12-20T05:51:12.796Z,97518.47
2022-12-20T05:55:40.516Z,97511.66
2022-12-20T05:59:41.050Z,97525.31
2022-12-20T06:03:52.959Z,97509.69
2022-12-20T06:07:55.053Z,97529.56
2022-12-20T06:11:56.953Z,97520.06
2022-12-20T06:15:57.248Z,97511.44
2022-12-20T06:20:00.121Z,97515.66
2022-12-20T06:24:01.673Z,97483.22
2022-12-20T06:28:03.053Z,97519.81
2022-12-20T06:32:05.376Z,97520.16
2022-12-20T06:36:09.335Z,97535.84
2022-12-20T06:40:13.959Z,97536.19
2022-12-20T06:44:14.302Z,97540.47
2022-12-20T06:48:15.056Z,97520.69
2022-12-20T06:52:19.507Z,97518.91
2022-12-20T06:56:22.915Z,97517.53
2022-12-20T07:00:25.462Z,97533.44
2022-12-20T07:04:25.752Z,97509.84
2022-12-20T07:08:28.861Z,97499.78
2022-12-20T07:12:29.241Z,97512.09
2022-12-20T07:16:29.702Z,97529.38
2022-12-20T07:20:30.244Z,97523.28
2022-12-20T07:24:33.040Z,97521.91
2022-12-20T07:28:33.142Z,97508.88
2022-12-20T07:32:33.259Z,97530.06
2022-12-20T07:36:33.343Z,97520.53
2022-12-20T07:40:35.975Z,97476.75
2022-12-20T07:44:37.476Z,97512.25
2022-12-20T07:48:38.941Z,97519.38
2022-12-20T07:52:40.732Z,97499.66
2022-12-20T07:56:50.512Z,97516.53
2022-12-20T08:00:50.844Z,97502.97
2022-12-20T08:04:52.463Z,97500.75
2022-12-20T08:08:58.987Z,97516.25
2022-12-20T08:13:02.702Z,97511.16
2022-12-20T08:17:03.203Z,97510.09
2022-12-20T08:21:03.886Z,97500.50
2022-12-20T08:25:04.847Z,97492.97
2022-12-20T08:29:08.095Z,97486.78
2022-12-20T08:33:08.420Z,97491.03
2022-12-20T08:37:14.588Z,97486.38
2022-12-20T08:41:17.986Z,97461.16
2022-12-20T08:45:21.828Z,97478.34
2022-12-20T08:49:22.493Z,97474.63
2022-12-20T08:53:22.592Z,97450.94
2022-12-20T08:57:22.711Z,97441.50
2022-12-20T09:01:28.314Z,97464.75
2022-12-20T09:05:28.655Z,97468.75
2022-12-20T09:09:28.765Z,97457.50
2022-12-20T09:13:28.850Z,97478.50
2022-12-20T09:17:32.049Z,97462.75
2022-12-20T09:21:32.787Z,97456.69
2022-12-20T09:25:32.870Z,97457.78
2022-12-20T09:29:35.688Z,97473.31
2022-12-20T09:33:38.977Z,97470.09
2022-12-20T09:37:39.026Z,97456.34
2022-12-20T09:41:44.188Z,97468.88
2022-12-20T09:45:47.843Z,97462.69
2022-12-20T09:49:57.614Z,97357.28
2022-12-20T09:54:14.989Z,97451.13
2022-12-20T09:58:39.777Z,97400.72
2022-12-20T10:07:24.986Z,97433.66
2022-12-20T10:12:02.491Z,97436.09
2022-12-20T10:16:16.634Z,97425.50
2022-12-20T10:20:42.319Z,97419.63
2022-12-20T10:24:55.591Z,97430.78
2022-12-20T10:28:55.663Z,97415.38
2022-12-20T10:32:59.465Z,97421.66
2022-12-20T10:37:16.090Z,97379.22
2022-12-20T10:41:23.424Z,97363.34
2022-12-20T10:45:39.696Z,97373.72
2022-12-20T10:49:42.508Z,97344.69
2022-12-20T10:53:59.399Z,97344.69
2022-12-20T10:58:08.448Z,97357.91
2022-12-20T11:02:37.089Z,97351.16
2022-12-20T11:06:48.664Z,97334.53
2022-12-20T11:10:49.032Z,97334.97
2022-12-20T11:14:52.595Z,97297.50
2022-12-20T11:19:06.112Z,97324.59
2022-12-20T11:23:25.559Z,97331.94
2022-12-20T11:27:43.054Z,97292.28
2022-12-20T11:32:00.089Z,97279.25
2022-12-20T11:36:09.262Z,97280.84
2022-12-20T11:45:01.755Z,97304.16
2022-12-20T11:53:49.298Z,97283.41
2022-12-20T11:58:18.266Z,97286.91
2022-12-20T12:02:58.671Z,97274.19
2022-12-20T12:07:11.005Z,97263.84
2022-12-20T12:16:56.332Z,97129.00
2022-12-20T12:21:21.531Z,97275.09
2022-12-20T12:25:22.488Z,97254.16
2022-12-20T12:29:25.053Z,97255.28
2022-12-20T12:33:46.267Z,97263.28
2022-12-20T12:38:08.166Z,97233.84
2022-12-20T12:42:42.568Z,97227.38
2022-12-20T12:46:42.946Z,97252.03
2022-12-20T12:50:50.696Z,97229.69
2022-12-20T12:54:50.945Z,97235.31
2022-12-20T13:04:55.774Z,97228.00
2022-12-20T13:10:21.010Z,97241.53
2022-12-20T13:15:20.882Z,96979.09
2022-12-20T13:19:38.591Z,97224.34
2022-12-20T13:23:38.817Z,97170.53
2022-12-20T13:27:41.495Z,97171.34
2022-12-20T13:31:41.665Z,97205.72
2022-12-20T13:35:59.443Z,97199.25
2022-12-20T13:40:02.828Z,97196.44
2022-12-20T13:44:20.879Z,97194.63
2022-12-20T13:48:29.308Z,97194.28
2022-12-20T13:52:34.899Z,97178.31
2022-12-20T13:56:49.812Z,97180.00
2022-12-20T14:00:51.268Z,97167.53
2022-12-20T14:05:05.338Z,97179.28
2022-12-20T14:09:34.971Z,97198.94
2022-12-20T14:13:34.955Z,97189.16
2022-12-20T14:17:39.860Z,97195.31
2022-12-20T14:21:49.850Z,97200.66
2022-12-20T14:25:57.228Z,97201.50
2022-12-20T14:29:57.330Z,97100.78
2022-12-20T14:34:07.834Z,97185.88
2022-12-20T14:38:08.144Z,97170.31
2022-12-20T14:42:23.616Z,97181.34
2022-12-20T14:46:25.193Z,97210.56
2022-12-20T14:50:32.176Z,97200.50
2022-12-20T14:55:06.384Z,97165.56
2022-12-20T14:59:08.517Z,97165.41
2022-12-20T15:03:21.828Z,97097.75
2022-12-20T15:07:33.717Z,97157.06
2022-12-20T15:11:36.467Z,97141.69
2022-12-20T15:15:39.766Z,97121.47
2022-12-20T15:19:42.577Z,97107.69
2022-12-20T15:23:48.855Z,97145.88
2022-12-20T15:27:49.065Z,97154.56
2022-12-20T15:31:55.935Z,97128.81
2022-12-20T15:35:56.804Z,97135.59
2022-12-20T15:39:57.127Z,97143.06
2022-12-20T15:44:01.147Z,97103.41
2022-12-20T15:48:03.680Z,97135.59
2022-12-20T15:52:03.727Z,97093.66
2022-12-20T15:56:04.059Z,97135.53
2022-12-20T16:00:06.796Z,97134.59
2022-12-20T16:04:20.653Z,97120.63
2022-12-20T16:08:21.405Z,97114.19
2022-12-20T16:12:27.035Z,97125.75
2022-12-20T16:16:31.818Z,97129.44
2022-12-20T16:20:35.639Z,97101.41
2022-12-20T16:24:35.645Z,97133.97
2022-12-20T16:28:36.083Z,97140.19
2022-12-20T16:32:36.257Z,97132.56
2022-12-20T16:36:38.975Z,97138.63
2022-12-20T16:40:39.088Z,97138.28
2022-12-20T16:44:42.758Z,97137.00
2022-12-20T16:48:43.482Z,97131.69
2022-12-20T16:52:46.681Z,97110.41
2022-12-20T16:56:47.411Z,97121.53
2022-12-20T17:00:47.527Z,97124.84
2022-12-20T17:04:48.085Z,97116.50
2022-12-20T17:13:05.772Z,97121.66
2022-12-20T17:17:05.822Z,97106.84
2022-12-20T17:21:22.888Z,97044.22
2022-12-20T17:25:30.321Z,97121.25
2022-12-20T17:29:30.435Z,97094.34
2022-12-20T17:33:30.522Z,97088.78
2022-12-20T17:37:30.615Z,97095.69
2022-12-20T17:41:35.713Z,97102.19
2022-12-20T17:45:39.350Z,97110.41
2022-12-20T17:49:41.229Z,97088.44
2022-12-20T17:53:42.598Z,97069.53
2022-12-20T17:57:45.901Z,97094.00
2022-12-20T18:01:47.501Z,97088.84
2022-12-20T18:05:48.068Z,97075.94
2022-12-20T18:09:51.124Z,97086.97
2022-12-20T18:13:56.864Z,97081.31
2022-12-20T18:17:56.837Z,97036.38
2022-12-20T18:21:58.161Z,97088.19
2022-12-20T18:26:09.029Z,97108.09
2022-12-20T18:30:15.291Z,97115.75
2022-12-20T18:34:15.315Z,97121.09
2022-12-20T18:38:16.756Z,97081.78
2022-12-20T18:42:16.970Z,97112.97
2022-12-20T18:46:22.909Z,97115.00
2022-12-20T18:50:23.257Z,97105.56
2022-12-20T18:54:23.329Z,97097.97
2022-12-20T18:58:23.450Z,97070.44
2022-12-20T19:02:26.280Z,97100.28
2022-12-20T19:06:28.291Z,97081.63
2022-12-20T19:10:28.375Z,97052.84
2022-12-20T19:14:28.716Z,97090.56
2022-12-20T19:18:31.436Z,97089.91
2022-12-20T19:22:31.580Z,97039.59
2022-12-20T19:26:32.521Z,97051.13
2022-12-20T19:30:33.043Z,97044.47
2022-12-20T19:34:35.680Z,97058.25
2022-12-20T19:38:35.926Z,97063.47
2022-12-20T19:42:36.009Z,97002.06
2022-12-20T19:46:36.550Z,97030.13
2022-12-20T19:50:39.343Z,97024.03
2022-12-20T19:54:39.900Z,97030.66
2022-12-20T19:58:41.377Z,97027.66
2022-12-20T20:02:41.667Z,97011.84
2022-12-20T20:06:44.827Z,97022.72
2022-12-20T20:10:45.166Z,96973.28
2022-12-20T20:14:46.038Z,97005.53
2022-12-20T20:18:46.406Z,96992.59
2022-12-20T20:22:49.055Z,96903.03
2022-12-20T20:26:49.190Z,96991.19
2022-12-20T20:30:52.293Z,96989.91
2022-12-20T20:34:52.606Z,96993.97
2022-12-20T20:38:55.448Z,96994.22
2022-12-20T20:42:55.399Z,97017.28
2022-12-20T20:46:55.500Z,97002.44
2022-12-20T20:50:55.739Z,97003.78
2022-12-20T20:54:58.818Z,96985.97
2022-12-20T20:59:04.950Z,96985.22
2022-12-20T21:03:06.477Z,96975.13
2022-12-20T21:07:06.642Z,96985.88
2022-12-20T21:11:12.027Z,96993.88
2022-12-20T21:15:23.324Z,96983.31
2022-12-20T21:19:24.091Z,96969.34
2022-12-20T21:23:24.244Z,97005.28
2022-12-20T21:27:26.841Z,96980.03
2022-12-20T21:31:26.927Z,96990.56
2022-12-20T21:35:27.203Z,96995.44
2022-12-20T21:39:27.336Z,96988.78
2022-12-20T21:43:30.051Z,96978.91
2022-12-20T21:47:30.160Z,96945.34
2022-12-20T21:51:31.648Z,96978.91
2022-12-20T21:55:31.663Z,96961.41
2022-12-20T21:59:34.321Z,96981.66
2022-12-20T22:03:34.697Z,96966.53
2022-12-20T22:07:34.851Z,96977.91
2022-12-20T22:11:35.405Z,96975.94
2022-12-20T22:15:38.642Z,96984.50
2022-12-20T22:19:38.954Z,96979.22
2022-12-20T22:23:40.111Z,96984.88
2022-12-20T22:27:40.191Z,96989.31
2022-12-20T22:31:42.873Z,96994.94
2022-12-20T22:35:42.913Z,96991.41
2022-12-20T22:39:42.912Z,96933.09
2022-12-20T22:43:44.757Z,96984.47
2022-12-20T22:47:47.332Z,96978.22
2022-12-20T22:51:57.708Z,96962.72
2022-12-20T22:56:07.840Z,96990.56
2022-12-20T23:00:13.252Z,96969.13
2022-12-20T23:04:15.907Z,96980.78
2022-12-20T23:08:15.880Z,96971.53
2022-12-20T23:12:28.522Z,96976.66
2022-12-20T23:16:29.189Z,96944.66
2022-12-20T23:20:44.262Z,96986.72
2022-12-20T23:24:44.272Z,96967.09
2022-12-20T23:28:44.528Z,96938.00
2022-12-20T23:32:45.788Z,96976.31
2022-12-20T23:36:48.364Z,96945.88
2022-12-20T23:40:48.404Z,96957.38
2022-12-20T23:44:48.504Z,96977.38
2022-12-20T23:48:48.965Z,96971.69
2022-12-20T23:52:51.528Z,96977.19
2022-12-20T23:56:51.812Z,96958.88
